sensor_id;sensor_type;location;lat;lon;timestamp;P1;durP1;ratioP1;P2;durP2;ratioP2
34505;SDS011;20748;42.632;23.198;2022-11-21T00:02:30;12.95;;;6.18;;
34505;SDS011;20748;42.632;23.198;2022-11-21T00:05:03;14.98;;;5.72;;
34505;SDS011;20748;42.632;23.198;2022-11-21T00:07:36;23.98;;;7.38;;
34505;SDS011;20748;42.632;23.198;2022-11-21T00:10:09;14.57;;;5.07;;
34505;SDS011;20748;42.632;23.198;2022-11-21T00:12:41;9.73;;;4.28;;
34505;SDS011;20748;42.632;23.198;2022-11-21T00:15:14;9.27;;;3.50;;
34505;SDS011;20748;42.632;23.198;2022-11-21T00:17:46;8.07;;;2.65;;
34505;SDS011;20748;42.632;23.198;2022-11-21T00:20:19;12.40;;;4.20;;
34505;SDS011;20748;42.632;23.198;2022-11-21T00:22:52;14.23;;;5.18;;
34505;SDS011;20748;42.632;23.198;2022-11-21T00:25:25;7.53;;;3.17;;
34505;SDS011;20748;42.632;23.198;2022-11-21T00:27:57;9.25;;;3.08;;
34505;SDS011;20748;42.632;23.198;2022-11-21T00:30:30;13.60;;;3.13;;
34505;SDS011;20748;42.632;23.198;2022-11-21T00:33:02;10.27;;;4.13;;
34505;SDS011;20748;42.632;23.198;2022-11-21T00:35:35;10.75;;;4.47;;
34505;SDS011;20748;42.632;23.198;2022-11-21T00:38:07;11.88;;;4.45;;
34505;SDS011;20748;42.632;23.198;2022-11-21T00:40:41;8.18;;;3.90;;
34505;SDS011;20748;42.632;23.198;2022-11-21T00:43:14;6.68;;;3.13;;
34505;SDS011;20748;42.632;23.198;2022-11-21T00:45:46;7.25;;;3.25;;
34505;SDS011;20748;42.632;23.198;2022-11-21T00:48:19;7.45;;;2.42;;
34505;SDS011;20748;42.632;23.198;2022-11-21T00:50:51;5.28;;;1.70;;
34505;SDS011;20748;42.632;23.198;2022-11-21T00:53:23;9.25;;;2.72;;
34505;SDS011;20748;42.632;23.198;2022-11-21T00:55:56;5.50;;;1.98;;
34505;SDS011;20748;42.632;23.198;2022-11-21T00:58:29;3.20;;;0.50;;
34505;SDS011;20748;42.632;23.198;2022-11-21T01:01:02;1.75;;;0.50;;
34505;SDS011;20748;42.632;23.198;2022-11-21T01:03:36;0.88;;;0.22;;
34505;SDS011;20748;42.632;23.198;2022-11-21T01:06:10;0.28;;;0.20;;
34505;SDS011;20748;42.632;23.198;2022-11-21T01:08:43;0.55;;;0.45;;
34505;SDS011;20748;42.632;23.198;2022-11-21T01:11:17;0.50;;;0.40;;
34505;SDS011;20748;42.632;23.198;2022-11-21T01:13:51;1.25;;;0.40;;
34505;SDS011;20748;42.632;23.198;2022-11-21T01:16:25;0.65;;;0.30;;
34505;SDS011;20748;42.632;23.198;2022-11-21T01:18:58;2.38;;;0.63;;
34505;SDS011;20748;42.632;23.198;2022-11-21T01:21:30;1.45;;;0.50;;
34505;SDS011;20748;42.632;23.198;2022-11-21T01:24:03;1.60;;;0.32;;
34505;SDS011;20748;42.632;23.198;2022-11-21T01:26:36;2.08;;;0.63;;
34505;SDS011;20748;42.632;23.198;2022-11-21T01:29:09;0.57;;;0.30;;
34505;SDS011;20748;42.632;23.198;2022-11-21T01:31:41;0.85;;;0.30;;
34505;SDS011;20748;42.632;23.198;2022-11-21T01:34:13;1.13;;;0.40;;
34505;SDS011;20748;42.632;23.198;2022-11-21T01:36:46;3.22;;;0.52;;
34505;SDS011;20748;42.632;23.198;2022-11-21T01:39:19;0.50;;;0.30;;
34505;SDS011;20748;42.632;23.198;2022-11-21T01:41:51;0.40;;;0.30;;
34505;SDS011;20748;42.632;23.198;2022-11-21T01:44:25;3.10;;;0.30;;
34505;SDS011;20748;42.632;23.198;2022-11-21T01:47:16;3.38;;;0.40;;
34505;SDS011;20748;42.632;23.198;2022-11-21T01:49:49;0.35;;;0.22;;
34505;SDS011;20748;42.632;23.198;2022-11-21T01:52:23;4.28;;;0.70;;
34505;SDS011;20748;42.632;23.198;2022-11-21T01:55:00;1.15;;;0.20;;
34505;SDS011;20748;42.632;23.198;2022-11-21T01:57:36;1.60;;;0.38;;
34505;SDS011;20748;42.632;23.198;2022-11-21T02:00:12;0.70;;;0.40;;
34505;SDS011;20748;42.632;23.198;2022-11-21T02:02:49;2.08;;;0.43;;
34505;SDS011;20748;42.632;23.198;2022-11-21T02:05:27;1.23;;;0.22;;
34505;SDS011;20748;42.632;23.198;2022-11-21T02:08:02;0.63;;;0.30;;
34505;SDS011;20748;42.632;23.198;2022-11-21T02:10:39;0.30;;;0.20;;
34505;SDS011;20748;42.632;23.198;2022-11-21T02:13:18;1.15;;;0.70;;
34505;SDS011;20748;42.632;23.198;2022-11-21T02:15:53;1.15;;;0.40;;
34505;SDS011;20748;42.632;23.198;2022-11-21T02:18:26;0.20;;;0.20;;
34505;SDS011;20748;42.632;23.198;2022-11-21T02:21:01;0.40;;;0.22;;
34505;SDS011;20748;42.632;23.198;2022-11-21T02:23:40;3.65;;;0.80;;
34505;SDS011;20748;42.632;23.198;2022-11-21T02:26:20;2.50;;;0.60;;
34505;SDS011;20748;42.632;23.198;2022-11-21T02:28:53;2.40;;;0.38;;
34505;SDS011;20748;42.632;23.198;2022-11-21T02:31:25;1.20;;;0.50;;
34505;SDS011;20748;42.632;23.198;2022-11-21T02:33:58;0.57;;;0.20;;
34505;SDS011;20748;42.632;23.198;2022-11-21T02:36:40;0.85;;;0.52;;
34505;SDS011;20748;42.632;23.198;2022-11-21T02:39:15;1.15;;;0.40;;
34505;SDS011;20748;42.632;23.198;2022-11-21T02:41:54;3.53;;;0.52;;
34505;SDS011;20748;42.632;23.198;2022-11-21T02:44:34;2.40;;;0.77;;
34505;SDS011;20748;42.632;23.198;2022-11-21T02:47:11;0.93;;;0.40;;
34505;SDS011;20748;42.632;23.198;2022-11-21T02:49:44;0.88;;;0.30;;
34505;SDS011;20748;42.632;23.198;2022-11-21T02:52:21;0.68;;;0.40;;
34505;SDS011;20748;42.632;23.198;2022-11-21T02:54:54;4.45;;;0.35;;
34505;SDS011;20748;42.632;23.198;2022-11-21T02:57:27;0.38;;;0.38;;
34505;SDS011;20748;42.632;23.198;2022-11-21T02:59:59;1.02;;;0.60;;
34505;SDS011;20748;42.632;23.198;2022-11-21T03:02:31;1.55;;;0.47;;
34505;SDS011;20748;42.632;23.198;2022-11-21T03:05:04;3.45;;;0.60;;
34505;SDS011;20748;42.632;23.198;2022-11-21T03:07:38;0.85;;;0.60;;
34505;SDS011;20748;42.632;23.198;2022-11-21T03:10:11;0.38;;;0.38;;
34505;SDS011;20748;42.632;23.198;2022-11-21T03:12:44;2.95;;;0.70;;
34505;SDS011;20748;42.632;23.198;2022-11-21T03:15:17;0.88;;;0.32;;
34505;SDS011;20748;42.632;23.198;2022-11-21T03:17:49;9.95;;;1.50;;
34505;SDS011;20748;42.632;23.198;2022-11-21T03:20:22;2.47;;;0.47;;
34505;SDS011;20748;42.632;23.198;2022-11-21T03:22:54;1.13;;;0.50;;
34505;SDS011;20748;42.632;23.198;2022-11-21T03:25:27;2.63;;;0.32;;
34505;SDS011;20748;42.632;23.198;2022-11-21T03:28:00;0.60;;;0.30;;
34505;SDS011;20748;42.632;23.198;2022-11-21T03:30:33;1.02;;;0.60;;
34505;SDS011;20748;42.632;23.198;2022-11-21T03:33:05;0.98;;;0.63;;
34505;SDS011;20748;42.632;23.198;2022-11-21T03:35:37;1.38;;;0.43;;
34505;SDS011;20748;42.632;23.198;2022-11-21T03:38:10;5.63;;;0.38;;
34505;SDS011;20748;42.632;23.198;2022-11-21T03:40:42;0.68;;;0.40;;
34505;SDS011;20748;42.632;23.198;2022-11-21T03:43:15;2.03;;;0.85;;
34505;SDS011;20748;42.632;23.198;2022-11-21T03:45:47;2.33;;;0.82;;
34505;SDS011;20748;42.632;23.198;2022-11-21T03:48:20;0.38;;;0.20;;
34505;SDS011;20748;42.632;23.198;2022-11-21T03:50:52;3.13;;;1.00;;
34505;SDS011;20748;42.632;23.198;2022-11-21T03:53:25;1.98;;;0.68;;
34505;SDS011;20748;42.632;23.198;2022-11-21T03:55:57;1.17;;;0.82;;
34505;SDS011;20748;42.632;23.198;2022-11-21T03:58:30;0.32;;;0.32;;
34505;SDS011;20748;42.632;23.198;2022-11-21T04:01:02;1.20;;;0.52;;
34505;SDS011;20748;42.632;23.198;2022-11-21T04:03:35;4.88;;;0.80;;
34505;SDS011;20748;42.632;23.198;2022-11-21T04:06:08;0.77;;;0.50;;
34505;SDS011;20748;42.632;23.198;2022-11-21T04:08:41;3.42;;;0.80;;
34505;SDS011;20748;42.632;23.198;2022-11-21T04:11:13;2.05;;;0.43;;
34505;SDS011;20748;42.632;23.198;2022-11-21T04:13:46;3.40;;;0.77;;
34505;SDS011;20748;42.632;23.198;2022-11-21T04:16:19;3.90;;;1.38;;
34505;SDS011;20748;42.632;23.198;2022-11-21T04:18:52;5.65;;;1.20;;
34505;SDS011;20748;42.632;23.198;2022-11-21T04:21:24;1.83;;;0.85;;
34505;SDS011;20748;42.632;23.198;2022-11-21T04:23:56;1.27;;;0.90;;
34505;SDS011;20748;42.632;23.198;2022-11-21T04:26:29;2.85;;;1.30;;
34505;SDS011;20748;42.632;23.198;2022-11-21T04:29:02;4.63;;;0.50;;
34505;SDS011;20748;42.632;23.198;2022-11-21T04:31:34;1.83;;;0.60;;
34505;SDS011;20748;42.632;23.198;2022-11-21T04:34:07;2.42;;;0.82;;
34505;SDS011;20748;42.632;23.198;2022-11-21T04:36:39;3.35;;;0.88;;
34505;SDS011;20748;42.632;23.198;2022-11-21T04:39:11;2.28;;;0.40;;
34505;SDS011;20748;42.632;23.198;2022-11-21T04:41:44;2.40;;;0.60;;
34505;SDS011;20748;42.632;23.198;2022-11-21T04:44:17;6.30;;;1.00;;
34505;SDS011;20748;42.632;23.198;2022-11-21T04:46:49;0.98;;;0.60;;
34505;SDS011;20748;42.632;23.198;2022-11-21T04:49:23;1.25;;;0.93;;
34505;SDS011;20748;42.632;23.198;2022-11-21T04:51:56;11.30;;;0.57;;
34505;SDS011;20748;42.632;23.198;2022-11-21T04:54:28;8.90;;;1.13;;
34505;SDS011;20748;42.632;23.198;2022-11-21T04:57:01;0.85;;;0.63;;
34505;SDS011;20748;42.632;23.198;2022-11-21T04:59:34;1.45;;;1.02;;
34505;SDS011;20748;42.632;23.198;2022-11-21T05:02:06;3.50;;;0.80;;
34505;SDS011;20748;42.632;23.198;2022-11-21T05:04:39;1.02;;;0.88;;
34505;SDS011;20748;42.632;23.198;2022-11-21T05:07:11;1.00;;;0.50;;
34505;SDS011;20748;42.632;23.198;2022-11-21T05:09:44;0.40;;;0.22;;
34505;SDS011;20748;42.632;23.198;2022-11-21T05:12:16;2.78;;;0.57;;
34505;SDS011;20748;42.632;23.198;2022-11-21T05:15:08;0.22;;;0.20;;
34505;SDS011;20748;42.632;23.198;2022-11-21T05:17:41;4.43;;;0.55;;
34505;SDS011;20748;42.632;23.198;2022-11-21T05:20:13;4.63;;;0.40;;
34505;SDS011;20748;42.632;23.198;2022-11-21T05:22:49;1.95;;;0.85;;
34505;SDS011;20748;42.632;23.198;2022-11-21T05:25:22;0.73;;;0.73;;
34505;SDS011;20748;42.632;23.198;2022-11-21T05:27:55;0.45;;;0.30;;
34505;SDS011;20748;42.632;23.198;2022-11-21T05:30:28;0.50;;;0.45;;
34505;SDS011;20748;42.632;23.198;2022-11-21T05:33:00;2.63;;;0.85;;
34505;SDS011;20748;42.632;23.198;2022-11-21T05:35:33;4.28;;;0.77;;
34505;SDS011;20748;42.632;23.198;2022-11-21T05:38:11;3.38;;;1.02;;
34505;SDS011;20748;42.632;23.198;2022-11-21T05:40:43;5.75;;;1.13;;
34505;SDS011;20748;42.632;23.198;2022-11-21T05:43:16;0.52;;;0.38;;
34505;SDS011;20748;42.632;23.198;2022-11-21T05:46:07;1.95;;;1.20;;
34505;SDS011;20748;42.632;23.198;2022-11-21T05:48:39;2.25;;;0.85;;
34505;SDS011;20748;42.632;23.198;2022-11-21T05:51:12;0.85;;;0.60;;
34505;SDS011;20748;42.632;23.198;2022-11-21T05:53:45;7.03;;;0.68;;
34505;SDS011;20748;42.632;23.198;2022-11-21T05:56:18;1.75;;;0.60;;
34505;SDS011;20748;42.632;23.198;2022-11-21T05:58:53;0.52;;;0.30;;
34505;SDS011;20748;42.632;23.198;2022-11-21T06:01:26;8.55;;;0.70;;
34505;SDS011;20748;42.632;23.198;2022-11-21T06:04:25;1.77;;;0.75;;
34505;SDS011;20748;42.632;23.198;2022-11-21T06:06:58;3.20;;;0.70;;
34505;SDS011;20748;42.632;23.198;2022-11-21T06:09:30;2.67;;;1.05;;
34505;SDS011;20748;42.632;23.198;2022-11-21T06:12:03;2.95;;;0.80;;
34505;SDS011;20748;42.632;23.198;2022-11-21T06:14:35;4.15;;;0.88;;
34505;SDS011;20748;42.632;23.198;2022-11-21T06:17:08;4.43;;;1.83;;
34505;SDS011;20748;42.632;23.198;2022-11-21T06:19:42;1.58;;;0.65;;
34505;SDS011;20748;42.632;23.198;2022-11-21T06:22:15;3.65;;;0.55;;
34505;SDS011;20748;42.632;23.198;2022-11-21T06:24:47;2.88;;;1.75;;
34505;SDS011;20748;42.632;23.198;2022-11-21T06:27:19;1.67;;;0.80;;
34505;SDS011;20748;42.632;23.198;2022-11-21T06:29:52;5.70;;;1.13;;
34505;SDS011;20748;42.632;23.198;2022-11-21T06:32:25;2.60;;;1.15;;
34505;SDS011;20748;42.632;23.198;2022-11-21T06:34:57;2.35;;;0.63;;
34505;SDS011;20748;42.632;23.198;2022-11-21T06:37:30;1.65;;;0.70;;
34505;SDS011;20748;42.632;23.198;2022-11-21T06:40:02;1.83;;;1.00;;
34505;SDS011;20748;42.632;23.198;2022-11-21T06:42:35;1.27;;;0.60;;
34505;SDS011;20748;42.632;23.198;2022-11-21T06:45:08;2.42;;;0.75;;
34505;SDS011;20748;42.632;23.198;2022-11-21T06:47:41;4.47;;;0.93;;
34505;SDS011;20748;42.632;23.198;2022-11-21T06:50:14;0.85;;;0.50;;
34505;SDS011;20748;42.632;23.198;2022-11-21T06:52:47;1.65;;;0.65;;
34505;SDS011;20748;42.632;23.198;2022-11-21T06:55:19;3.08;;;0.90;;
34505;SDS011;20748;42.632;23.198;2022-11-21T06:57:55;1.92;;;0.57;;
34505;SDS011;20748;42.632;23.198;2022-11-21T07:00:28;0.98;;;0.50;;
34505;SDS011;20748;42.632;23.198;2022-11-21T07:03:02;0.95;;;0.40;;
34505;SDS011;20748;42.632;23.198;2022-11-21T07:05:34;0.45;;;0.40;;
34505;SDS011;20748;42.632;23.198;2022-11-21T07:08:07;3.40;;;0.45;;
34505;SDS011;20748;42.632;23.198;2022-11-21T07:10:44;1.27;;;0.75;;
34505;SDS011;20748;42.632;23.198;2022-11-21T07:13:37;1.05;;;0.47;;
34505;SDS011;20748;42.632;23.198;2022-11-21T07:16:10;1.67;;;0.38;;
34505;SDS011;20748;42.632;23.198;2022-11-21T07:18:45;0.20;;;0.20;;
34505;SDS011;20748;42.632;23.198;2022-11-21T07:21:17;1.42;;;0.85;;
34505;SDS011;20748;42.632;23.198;2022-11-21T07:23:49;2.28;;;1.15;;
34505;SDS011;20748;42.632;23.198;2022-11-21T07:26:22;2.58;;;1.05;;
34505;SDS011;20748;42.632;23.198;2022-11-21T07:28:54;1.20;;;0.80;;
34505;SDS011;20748;42.632;23.198;2022-11-21T07:31:27;0.35;;;0.30;;
34505;SDS011;20748;42.632;23.198;2022-11-21T07:34:00;2.08;;;1.02;;
34505;SDS011;20748;42.632;23.198;2022-11-21T07:36:32;1.27;;;0.38;;
34505;SDS011;20748;42.632;23.198;2022-11-21T07:39:06;5.65;;;1.00;;
34505;SDS011;20748;42.632;23.198;2022-11-21T07:41:38;1.25;;;0.75;;
34505;SDS011;20748;42.632;23.198;2022-11-21T07:44:11;1.63;;;0.50;;
34505;SDS011;20748;42.632;23.198;2022-11-21T07:46:43;1.15;;;0.50;;
34505;SDS011;20748;42.632;23.198;2022-11-21T07:49:16;2.25;;;0.50;;
34505;SDS011;20748;42.632;23.198;2022-11-21T07:51:48;1.73;;;0.50;;
34505;SDS011;20748;42.632;23.198;2022-11-21T07:54:21;0.70;;;0.40;;
34505;SDS011;20748;42.632;23.198;2022-11-21T07:56:53;0.77;;;0.57;;
34505;SDS011;20748;42.632;23.198;2022-11-21T07:59:26;0.90;;;0.60;;
34505;SDS011;20748;42.632;23.198;2022-11-21T08:01:59;4.03;;;1.02;;
34505;SDS011;20748;42.632;23.198;2022-11-21T08:04:32;0.52;;;0.40;;
34505;SDS011;20748;42.632;23.198;2022-11-21T08:07:04;1.73;;;0.88;;
34505;SDS011;20748;42.632;23.198;2022-11-21T08:09:36;0.70;;;0.32;;
34505;SDS011;20748;42.632;23.198;2022-11-21T08:12:11;2.45;;;0.85;;
34505;SDS011;20748;42.632;23.198;2022-11-21T08:14:44;0.35;;;0.30;;
34505;SDS011;20748;42.632;23.198;2022-11-21T08:17:16;0.98;;;0.55;;
34505;SDS011;20748;42.632;23.198;2022-11-21T08:19:49;1.45;;;0.90;;
34505;SDS011;20748;42.632;23.198;2022-11-21T08:22:21;1.13;;;0.75;;
34505;SDS011;20748;42.632;23.198;2022-11-21T08:24:54;2.08;;;0.77;;
34505;SDS011;20748;42.632;23.198;2022-11-21T08:27:26;3.60;;;1.13;;
34505;SDS011;20748;42.632;23.198;2022-11-21T08:29:59;0.98;;;0.68;;
34505;SDS011;20748;42.632;23.198;2022-11-21T08:32:31;1.55;;;0.98;;
34505;SDS011;20748;42.632;23.198;2022-11-21T08:35:05;4.18;;;1.60;;
34505;SDS011;20748;42.632;23.198;2022-11-21T08:37:38;4.28;;;1.27;;
34505;SDS011;20748;42.632;23.198;2022-11-21T08:40:10;4.90;;;1.02;;
34505;SDS011;20748;42.632;23.198;2022-11-21T08:42:43;3.83;;;1.20;;
34505;SDS011;20748;42.632;23.198;2022-11-21T08:45:15;3.42;;;1.10;;
34505;SDS011;20748;42.632;23.198;2022-11-21T08:47:48;1.92;;;0.65;;
34505;SDS011;20748;42.632;23.198;2022-11-21T08:50:21;4.97;;;1.75;;
34505;SDS011;20748;42.632;23.198;2022-11-21T08:52:57;5.63;;;1.63;;
34505;SDS011;20748;42.632;23.198;2022-11-21T08:55:31;6.43;;;1.80;;
34505;SDS011;20748;42.632;23.198;2022-11-21T08:58:03;2.15;;;0.68;;
34505;SDS011;20748;42.632;23.198;2022-11-21T09:00:35;0.20;;;0.20;;
34505;SDS011;20748;42.632;23.198;2022-11-21T09:03:08;1.27;;;0.40;;
34505;SDS011;20748;42.632;23.198;2022-11-21T09:05:41;0.35;;;0.30;;
34505;SDS011;20748;42.632;23.198;2022-11-21T09:08:13;0.50;;;0.40;;
34505;SDS011;20748;42.632;23.198;2022-11-21T09:10:45;1.45;;;0.68;;
34505;SDS011;20748;42.632;23.198;2022-11-21T09:13:18;0.90;;;0.75;;
34505;SDS011;20748;42.632;23.198;2022-11-21T09:15:50;2.15;;;0.82;;
34505;SDS011;20748;42.632;23.198;2022-11-21T09:18:40;1.05;;;0.82;;
34505;SDS011;20748;42.632;23.198;2022-11-21T09:21:14;1.63;;;1.00;;
34505;SDS011;20748;42.632;23.198;2022-11-21T09:23:47;2.40;;;0.90;;
34505;SDS011;20748;42.632;23.198;2022-11-21T09:26:19;6.00;;;2.40;;
34505;SDS011;20748;42.632;23.198;2022-11-21T09:28:51;6.95;;;2.25;;
34505;SDS011;20748;42.632;23.198;2022-11-21T09:31:24;2.20;;;1.10;;
34505;SDS011;20748;42.632;23.198;2022-11-21T09:33:56;2.00;;;1.02;;
34505;SDS011;20748;42.632;23.198;2022-11-21T09:36:29;1.80;;;0.65;;
34505;SDS011;20748;42.632;23.198;2022-11-21T09:39:02;3.42;;;1.45;;
34505;SDS011;20748;42.632;23.198;2022-11-21T09:41:36;3.38;;;1.27;;
34505;SDS011;20748;42.632;23.198;2022-11-21T09:44:30;1.92;;;1.30;;
34505;SDS011;20748;42.632;23.198;2022-11-21T09:47:20;3.40;;;1.00;;
34505;SDS011;20748;42.632;23.198;2022-11-21T09:49:56;2.75;;;1.42;;
34505;SDS011;20748;42.632;23.198;2022-11-21T09:52:34;1.10;;;0.50;;
34505;SDS011;20748;42.632;23.198;2022-11-21T09:55:14;1.52;;;0.90;;
34505;SDS011;20748;42.632;23.198;2022-11-21T09:57:51;1.27;;;0.60;;
34505;SDS011;20748;42.632;23.198;2022-11-21T10:00:24;2.78;;;1.35;;
34505;SDS011;20748;42.632;23.198;2022-11-21T10:02:57;3.95;;;1.60;;
34505;SDS011;20748;42.632;23.198;2022-11-21T10:05:32;2.97;;;1.35;;
34505;SDS011;20748;42.632;23.198;2022-11-21T10:08:15;2.72;;;1.00;;
34505;SDS011;20748;42.632;23.198;2022-11-21T10:10:52;2.22;;;0.88;;
34505;SDS011;20748;42.632;23.198;2022-11-21T10:13:39;1.15;;;0.80;;
34505;SDS011;20748;42.632;23.198;2022-11-21T10:16:20;4.78;;;2.17;;
34505;SDS011;20748;42.632;23.198;2022-11-21T10:19:09;4.63;;;1.90;;
34505;SDS011;20748;42.632;23.198;2022-11-21T10:21:59;3.65;;;1.23;;
34505;SDS011;20748;42.632;23.198;2022-11-21T10:24:51;5.38;;;1.80;;
34505;SDS011;20748;42.632;23.198;2022-11-21T10:27:30;1.35;;;0.65;;
34505;SDS011;20748;42.632;23.198;2022-11-21T10:30:11;1.60;;;1.10;;
34505;SDS011;20748;42.632;23.198;2022-11-21T10:32:46;2.92;;;0.95;;
34505;SDS011;20748;42.632;23.198;2022-11-21T10:35:22;3.65;;;1.85;;
34505;SDS011;20748;42.632;23.198;2022-11-21T10:37:57;1.83;;;1.23;;
34505;SDS011;20748;42.632;23.198;2022-11-21T10:40:33;2.28;;;1.05;;
34505;SDS011;20748;42.632;23.198;2022-11-21T10:43:08;4.22;;;2.05;;
34505;SDS011;20748;42.632;23.198;2022-11-21T10:46:13;2.90;;;1.67;;
34505;SDS011;20748;42.632;23.198;2022-11-21T10:48:46;3.15;;;1.40;;
34505;SDS011;20748;42.632;23.198;2022-11-21T10:54:07;2.55;;;1.08;;
34505;SDS011;20748;42.632;23.198;2022-11-21T10:57:00;2.08;;;1.17;;
34505;SDS011;20748;42.632;23.198;2022-11-21T10:59:38;2.95;;;1.40;;
34505;SDS011;20748;42.632;23.198;2022-11-21T11:02:21;4.78;;;1.48;;
34505;SDS011;20748;42.632;23.198;2022-11-21T11:07:58;3.78;;;1.30;;
34505;SDS011;20748;42.632;23.198;2022-11-21T11:10:33;1.80;;;1.02;;
34505;SDS011;20748;42.632;23.198;2022-11-21T11:13:11;0.93;;;0.60;;
34505;SDS011;20748;42.632;23.198;2022-11-21T11:16:21;2.15;;;1.08;;
34505;SDS011;20748;42.632;23.198;2022-11-21T11:18:56;3.95;;;1.33;;
34505;SDS011;20748;42.632;23.198;2022-11-21T11:21:40;2.15;;;0.63;;
34505;SDS011;20748;42.632;23.198;2022-11-21T11:24:21;2.33;;;1.00;;
34505;SDS011;20748;42.632;23.198;2022-11-21T11:26:58;4.38;;;1.35;;
34505;SDS011;20748;42.632;23.198;2022-11-21T11:29:32;1.40;;;1.05;;
34505;SDS011;20748;42.632;23.198;2022-11-21T11:32:19;2.78;;;1.45;;
34505;SDS011;20748;42.632;23.198;2022-11-21T11:34:56;2.35;;;1.55;;
34505;SDS011;20748;42.632;23.198;2022-11-21T11:37:33;3.85;;;1.25;;
34505;SDS011;20748;42.632;23.198;2022-11-21T11:40:16;4.38;;;1.55;;
34505;SDS011;20748;42.632;23.198;2022-11-21T11:42:57;2.95;;;1.33;;
34505;SDS011;20748;42.632;23.198;2022-11-21T11:46:07;6.90;;;2.13;;
34505;SDS011;20748;42.632;23.198;2022-11-21T11:49:08;4.00;;;1.88;;
34505;SDS011;20748;42.632;23.198;2022-11-21T11:51:53;8.20;;;3.05;;
34505;SDS011;20748;42.632;23.198;2022-11-21T11:54:31;13.70;;;2.65;;
34505;SDS011;20748;42.632;23.198;2022-11-21T11:57:11;11.43;;;3.03;;
34505;SDS011;20748;42.632;23.198;2022-11-21T11:59:45;9.57;;;2.83;;
34505;SDS011;20748;42.632;23.198;2022-11-21T12:02:27;6.80;;;2.92;;
34505;SDS011;20748;42.632;23.198;2022-11-21T12:05:11;9.23;;;3.03;;
34505;SDS011;20748;42.632;23.198;2022-11-21T12:07:50;9.32;;;2.55;;
34505;SDS011;20748;42.632;23.198;2022-11-21T12:10:55;3.22;;;1.15;;
34505;SDS011;20748;42.632;23.198;2022-11-21T12:14:09;2.90;;;1.27;;
34505;SDS011;20748;42.632;23.198;2022-11-21T12:17:08;7.22;;;2.78;;
34505;SDS011;20748;42.632;23.198;2022-11-21T12:19:42;5.93;;;1.77;;
34505;SDS011;20748;42.632;23.198;2022-11-21T12:22:15;6.32;;;1.50;;
34505;SDS011;20748;42.632;23.198;2022-11-21T12:24:47;1.50;;;0.77;;
34505;SDS011;20748;42.632;23.198;2022-11-21T12:27:23;3.83;;;1.30;;
34505;SDS011;20748;42.632;23.198;2022-11-21T12:30:04;2.28;;;1.17;;
34505;SDS011;20748;42.632;23.198;2022-11-21T12:32:53;4.78;;;1.67;;
34505;SDS011;20748;42.632;23.198;2022-11-21T12:35:36;3.13;;;1.00;;
34505;SDS011;20748;42.632;23.198;2022-11-21T12:38:22;3.00;;;1.20;;
34505;SDS011;20748;42.632;23.198;2022-11-21T12:41:13;5.28;;;2.60;;
34505;SDS011;20748;42.632;23.198;2022-11-21T12:44:18;4.60;;;1.58;;
34505;SDS011;20748;42.632;23.198;2022-11-21T12:47:07;3.20;;;1.42;;
34505;SDS011;20748;42.632;23.198;2022-11-21T12:49:50;3.42;;;1.13;;
34505;SDS011;20748;42.632;23.198;2022-11-21T12:52:47;2.63;;;1.30;;
34505;SDS011;20748;42.632;23.198;2022-11-21T12:55:42;7.28;;;3.05;;
34505;SDS011;20748;42.632;23.198;2022-11-21T12:58:20;11.35;;;2.13;;
34505;SDS011;20748;42.632;23.198;2022-11-21T13:01:01;2.97;;;1.05;;
34505;SDS011;20748;42.632;23.198;2022-11-21T13:03:54;1.67;;;0.93;;
34505;SDS011;20748;42.632;23.198;2022-11-21T13:06:31;2.08;;;0.98;;
34505;SDS011;20748;42.632;23.198;2022-11-21T13:09:12;2.80;;;1.17;;
34505;SDS011;20748;42.632;23.198;2022-11-21T13:11:49;2.08;;;0.93;;
34505;SDS011;20748;42.632;23.198;2022-11-21T13:14:34;1.33;;;0.63;;
34505;SDS011;20748;42.632;23.198;2022-11-21T13:17:14;1.40;;;0.70;;
34505;SDS011;20748;42.632;23.198;2022-11-21T13:20:00;2.75;;;1.45;;
34505;SDS011;20748;42.632;23.198;2022-11-21T13:22:47;3.88;;;2.38;;
34505;SDS011;20748;42.632;23.198;2022-11-21T13:25:34;2.13;;;1.05;;
34505;SDS011;20748;42.632;23.198;2022-11-21T13:28:29;1.92;;;1.00;;
34505;SDS011;20748;42.632;23.198;2022-11-21T13:34:02;1.27;;;0.68;;
34505;SDS011;20748;42.632;23.198;2022-11-21T13:36:36;0.40;;;0.40;;
34505;SDS011;20748;42.632;23.198;2022-11-21T13:42:05;2.15;;;1.10;;
34505;SDS011;20748;42.632;23.198;2022-11-21T13:44:57;2.03;;;0.95;;
34505;SDS011;20748;42.632;23.198;2022-11-21T13:51:16;1.05;;;0.73;;
34505;SDS011;20748;42.632;23.198;2022-11-21T13:54:18;1.92;;;0.88;;
34505;SDS011;20748;42.632;23.198;2022-11-21T13:57:20;1.60;;;0.88;;
34505;SDS011;20748;42.632;23.198;2022-11-21T14:00:20;2.00;;;0.85;;
34505;SDS011;20748;42.632;23.198;2022-11-21T14:06:31;3.53;;;1.02;;
34505;SDS011;20748;42.632;23.198;2022-11-21T14:09:15;4.72;;;1.25;;
34505;SDS011;20748;42.632;23.198;2022-11-21T14:11:52;3.92;;;0.90;;
34505;SDS011;20748;42.632;23.198;2022-11-21T14:14:28;2.47;;;1.15;;
34505;SDS011;20748;42.632;23.198;2022-11-21T14:17:25;2.17;;;0.98;;
34505;SDS011;20748;42.632;23.198;2022-11-21T14:20:07;3.05;;;0.95;;
34505;SDS011;20748;42.632;23.198;2022-11-21T14:22:57;3.03;;;1.20;;
34505;SDS011;20748;42.632;23.198;2022-11-21T14:25:40;3.22;;;1.02;;
34505;SDS011;20748;42.632;23.198;2022-11-21T14:28:15;2.67;;;1.08;;
34505;SDS011;20748;42.632;23.198;2022-11-21T14:30:58;1.55;;;0.75;;
34505;SDS011;20748;42.632;23.198;2022-11-21T14:33:31;2.83;;;0.80;;
34505;SDS011;20748;42.632;23.198;2022-11-21T14:36:05;1.02;;;0.70;;
34505;SDS011;20748;42.632;23.198;2022-11-21T14:38:40;2.00;;;0.98;;
34505;SDS011;20748;42.632;23.198;2022-11-21T14:41:30;5.13;;;1.02;;
34505;SDS011;20748;42.632;23.198;2022-11-21T14:44:04;3.20;;;1.33;;
34505;SDS011;20748;42.632;23.198;2022-11-21T14:46:45;4.95;;;1.90;;
34505;SDS011;20748;42.632;23.198;2022-11-21T14:49:23;7.05;;;2.72;;
34505;SDS011;20748;42.632;23.198;2022-11-21T14:52:05;7.97;;;3.03;;
34505;SDS011;20748;42.632;23.198;2022-11-21T14:54:49;7.63;;;3.97;;
34505;SDS011;20748;42.632;23.198;2022-11-21T14:57:43;3.38;;;1.40;;
34505;SDS011;20748;42.632;23.198;2022-11-21T15:00:17;4.60;;;1.77;;
34505;SDS011;20748;42.632;23.198;2022-11-21T15:03:16;2.65;;;1.40;;
34505;SDS011;20748;42.632;23.198;2022-11-21T15:05:57;8.25;;;2.35;;
34505;SDS011;20748;42.632;23.198;2022-11-21T15:08:37;4.72;;;2.15;;
34505;SDS011;20748;42.632;23.198;2022-11-21T15:11:31;4.43;;;2.05;;
34505;SDS011;20748;42.632;23.198;2022-11-21T15:14:10;6.47;;;3.25;;
34505;SDS011;20748;42.632;23.198;2022-11-21T15:16:50;6.32;;;1.95;;
34505;SDS011;20748;42.632;23.198;2022-11-21T15:19:25;4.20;;;1.63;;
34505;SDS011;20748;42.632;23.198;2022-11-21T15:22:00;4.13;;;1.52;;
34505;SDS011;20748;42.632;23.198;2022-11-21T15:24:36;3.97;;;2.00;;
34505;SDS011;20748;42.632;23.198;2022-11-21T15:27:22;4.43;;;2.17;;
34505;SDS011;20748;42.632;23.198;2022-11-21T15:30:06;6.38;;;3.05;;
34505;SDS011;20748;42.632;23.198;2022-11-21T15:33:06;13.77;;;3.90;;
34505;SDS011;20748;42.632;23.198;2022-11-21T15:35:43;5.82;;;2.15;;
34505;SDS011;20748;42.632;23.198;2022-11-21T15:38:20;3.35;;;1.60;;
34505;SDS011;20748;42.632;23.198;2022-11-21T15:40:59;10.05;;;3.63;;
34505;SDS011;20748;42.632;23.198;2022-11-21T15:43:37;14.35;;;7.43;;
34505;SDS011;20748;42.632;23.198;2022-11-21T15:46:16;11.00;;;4.50;;
34505;SDS011;20748;42.632;23.198;2022-11-21T15:48:50;8.45;;;2.90;;
34505;SDS011;20748;42.632;23.198;2022-11-21T15:51:24;3.38;;;1.75;;